sensor_id;sensor_type;location;lat;lon;timestamp;P1;durP1;ratioP1;P2;durP2;ratioP2
59273;SDS011;45044;41.572;24.730;2022-12-07T00:01:20;49.93;;;31.30;;
59273;SDS011;45044;41.572;24.730;2022-12-07T00:03:50;58.90;;;33.20;;
59273;SDS011;45044;41.572;24.730;2022-12-07T00:06:19;80.03;;;37.60;;
59273;SDS011;45044;41.572;24.730;2022-12-07T00:08:47;45.27;;;28.43;;
59273;SDS011;45044;41.572;24.730;2022-12-07T00:11:21;39.80;;;25.83;;
59273;SDS011;45044;41.572;24.730;2022-12-07T00:13:53;36.55;;;23.52;;
59273;SDS011;45044;41.572;24.730;2022-12-07T00:16:22;39.43;;;24.97;;
59273;SDS011;45044;41.572;24.730;2022-12-07T00:18:51;38.80;;;22.83;;
59273;SDS011;45044;41.572;24.730;2022-12-07T00:21:19;37.80;;;23.70;;
59273;SDS011;45044;41.572;24.730;2022-12-07T00:23:48;36.17;;;23.10;;
59273;SDS011;45044;41.572;24.730;2022-12-07T00:26:18;63.83;;;39.87;;
59273;SDS011;45044;41.572;24.730;2022-12-07T00:28:46;39.67;;;26.43;;
59273;SDS011;45044;41.572;24.730;2022-12-07T00:31:15;52.70;;;33.23;;
59273;SDS011;45044;41.572;24.730;2022-12-07T00:33:44;139.47;;;81.17;;
59273;SDS011;45044;41.572;24.730;2022-12-07T00:36:13;42.33;;;27.73;;
59273;SDS011;45044;41.572;24.730;2022-12-07T00:38:42;39.50;;;25.10;;
59273;SDS011;45044;41.572;24.730;2022-12-07T00:41:13;33.63;;;23.00;;
59273;SDS011;45044;41.572;24.730;2022-12-07T00:43:41;34.90;;;24.30;;
59273;SDS011;45044;41.572;24.730;2022-12-07T00:46:09;42.13;;;27.07;;
59273;SDS011;45044;41.572;24.730;2022-12-07T00:48:36;39.43;;;25.93;;
59273;SDS011;45044;41.572;24.730;2022-12-07T00:51:04;40.63;;;26.00;;
59273;SDS011;45044;41.572;24.730;2022-12-07T00:53:33;45.93;;;29.13;;
59273;SDS011;45044;41.572;24.730;2022-12-07T00:56:14;45.80;;;30.27;;
59273;SDS011;45044;41.572;24.730;2022-12-07T00:58:42;43.20;;;28.20;;
59273;SDS011;45044;41.572;24.730;2022-12-07T01:01:10;44.27;;;28.20;;
59273;SDS011;45044;41.572;24.730;2022-12-07T01:03:37;42.73;;;27.30;;
59273;SDS011;45044;41.572;24.730;2022-12-07T01:06:05;41.30;;;25.93;;
59273;SDS011;45044;41.572;24.730;2022-12-07T01:08:32;43.73;;;29.33;;
59273;SDS011;45044;41.572;24.730;2022-12-07T01:11:03;45.27;;;28.37;;
59273;SDS011;45044;41.572;24.730;2022-12-07T01:13:33;44.37;;;28.27;;
59273;SDS011;45044;41.572;24.730;2022-12-07T01:16:01;37.17;;;25.50;;
59273;SDS011;45044;41.572;24.730;2022-12-07T01:18:31;51.30;;;27.87;;
59273;SDS011;45044;41.572;24.730;2022-12-07T01:21:12;40.23;;;23.03;;
59273;SDS011;45044;41.572;24.730;2022-12-07T01:23:42;35.73;;;22.17;;
59273;SDS011;45044;41.572;24.730;2022-12-07T01:26:13;33.70;;;21.67;;
59273;SDS011;45044;41.572;24.730;2022-12-07T01:28:42;39.23;;;22.60;;
59273;SDS011;45044;41.572;24.730;2022-12-07T01:31:10;35.70;;;21.40;;
59273;SDS011;45044;41.572;24.730;2022-12-07T01:33:42;33.00;;;19.43;;
59273;SDS011;45044;41.572;24.730;2022-12-07T01:36:15;34.40;;;20.60;;
59273;SDS011;45044;41.572;24.730;2022-12-07T01:38:44;31.57;;;19.57;;
59273;SDS011;45044;41.572;24.730;2022-12-07T01:41:11;35.60;;;20.83;;
59273;SDS011;45044;41.572;24.730;2022-12-07T01:46:47;36.90;;;21.87;;
59273;SDS011;45044;41.572;24.730;2022-12-07T01:49:23;32.80;;;18.83;;
59273;SDS011;45044;41.572;24.730;2022-12-07T01:51:57;27.43;;;16.43;;
59273;SDS011;45044;41.572;24.730;2022-12-07T01:54:28;26.73;;;16.30;;
59273;SDS011;45044;41.572;24.730;2022-12-07T01:56:56;32.37;;;19.57;;
59273;SDS011;45044;41.572;24.730;2022-12-07T01:59:24;52.33;;;31.70;;
59273;SDS011;45044;41.572;24.730;2022-12-07T02:01:53;52.43;;;32.27;;
59273;SDS011;45044;41.572;24.730;2022-12-07T02:04:22;50.33;;;31.47;;
59273;SDS011;45044;41.572;24.730;2022-12-07T02:06:49;53.07;;;32.80;;
59273;SDS011;45044;41.572;24.730;2022-12-07T02:09:17;43.17;;;26.03;;
59273;SDS011;45044;41.572;24.730;2022-12-07T02:11:44;44.30;;;26.37;;
59273;SDS011;45044;41.572;24.730;2022-12-07T02:14:11;44.83;;;26.93;;
59273;SDS011;45044;41.572;24.730;2022-12-07T02:22:19;37.77;;;23.97;;
59273;SDS011;45044;41.572;24.730;2022-12-07T02:31:08;32.73;;;22.30;;
59273;SDS011;45044;41.572;24.730;2022-12-07T02:33:44;31.03;;;19.20;;
59273;SDS011;45044;41.572;24.730;2022-12-07T02:36:18;34.77;;;23.43;;
59273;SDS011;45044;41.572;24.730;2022-12-07T02:39:31;34.17;;;22.63;;
59273;SDS011;45044;41.572;24.730;2022-12-07T02:42:20;35.83;;;23.80;;
59273;SDS011;45044;41.572;24.730;2022-12-07T02:44:54;32.17;;;20.80;;
59273;SDS011;45044;41.572;24.730;2022-12-07T02:47:21;34.43;;;23.50;;
59273;SDS011;45044;41.572;24.730;2022-12-07T02:49:51;37.73;;;22.60;;
59273;SDS011;45044;41.572;24.730;2022-12-07T02:52:18;32.53;;;21.40;;
59273;SDS011;45044;41.572;24.730;2022-12-07T02:54:45;31.33;;;20.63;;
59273;SDS011;45044;41.572;24.730;2022-12-07T03:00:11;33.77;;;22.80;;
59273;SDS011;45044;41.572;24.730;2022-12-07T03:02:55;32.53;;;23.03;;
59273;SDS011;45044;41.572;24.730;2022-12-07T03:19:02;23.30;;;14.80;;
59273;SDS011;45044;41.572;24.730;2022-12-07T03:21:36;22.23;;;15.33;;
59273;SDS011;45044;41.572;24.730;2022-12-07T03:24:11;27.50;;;17.23;;
59273;SDS011;45044;41.572;24.730;2022-12-07T03:26:47;26.50;;;16.37;;
59273;SDS011;45044;41.572;24.730;2022-12-07T03:29:19;20.13;;;15.23;;
59273;SDS011;45044;41.572;24.730;2022-12-07T03:31:56;23.07;;;16.57;;
59273;SDS011;45044;41.572;24.730;2022-12-07T03:34:30;23.13;;;17.60;;
59273;SDS011;45044;41.572;24.730;2022-12-07T03:37:30;25.63;;;17.33;;
59273;SDS011;45044;41.572;24.730;2022-12-07T03:43:01;33.53;;;25.00;;
59273;SDS011;45044;41.572;24.730;2022-12-07T03:45:37;46.47;;;29.57;;
59273;SDS011;45044;41.572;24.730;2022-12-07T03:48:20;35.97;;;24.20;;
59273;SDS011;45044;41.572;24.730;2022-12-07T03:51:12;46.35;;;30.55;;
59273;SDS011;45044;41.572;24.730;2022-12-07T03:53:59;38.37;;;25.07;;
59273;SDS011;45044;41.572;24.730;2022-12-07T03:56:33;38.80;;;25.37;;
59273;SDS011;45044;41.572;24.730;2022-12-07T03:59:01;38.57;;;23.77;;
59273;SDS011;45044;41.572;24.730;2022-12-07T04:01:28;46.13;;;28.53;;
59273;SDS011;45044;41.572;24.730;2022-12-07T04:03:55;40.03;;;26.93;;
59273;SDS011;45044;41.572;24.730;2022-12-07T04:06:22;35.03;;;24.63;;
59273;SDS011;45044;41.572;24.730;2022-12-07T04:08:48;38.37;;;27.50;;
59273;SDS011;45044;41.572;24.730;2022-12-07T04:11:15;40.23;;;27.37;;
59273;SDS011;45044;41.572;24.730;2022-12-07T04:13:42;49.13;;;28.13;;
59273;SDS011;45044;41.572;24.730;2022-12-07T04:18:54;38.43;;;25.97;;
59273;SDS011;45044;41.572;24.730;2022-12-07T04:21:20;38.53;;;29.20;;
59273;SDS011;45044;41.572;24.730;2022-12-07T04:23:47;39.10;;;24.37;;
59273;SDS011;45044;41.572;24.730;2022-12-07T04:26:14;38.87;;;25.97;;
59273;SDS011;45044;41.572;24.730;2022-12-07T04:28:41;42.60;;;26.00;;
59273;SDS011;45044;41.572;24.730;2022-12-07T04:31:07;41.70;;;29.03;;
59273;SDS011;45044;41.572;24.730;2022-12-07T04:33:35;45.67;;;29.27;;
59273;SDS011;45044;41.572;24.730;2022-12-07T04:36:02;43.77;;;26.87;;
59273;SDS011;45044;41.572;24.730;2022-12-07T04:38:29;48.00;;;29.37;;
59273;SDS011;45044;41.572;24.730;2022-12-07T04:40:56;62.30;;;36.53;;
59273;SDS011;45044;41.572;24.730;2022-12-07T04:43:23;46.23;;;31.60;;
59273;SDS011;45044;41.572;24.730;2022-12-07T04:45:49;59.50;;;39.43;;
59273;SDS011;45044;41.572;24.730;2022-12-07T04:48:17;54.77;;;37.97;;
59273;SDS011;45044;41.572;24.730;2022-12-07T04:50:44;67.23;;;41.03;;
59273;SDS011;45044;41.572;24.730;2022-12-07T04:53:11;70.73;;;40.37;;
59273;SDS011;45044;41.572;24.730;2022-12-07T04:55:38;65.13;;;38.87;;
59273;SDS011;45044;41.572;24.730;2022-12-07T04:58:05;68.87;;;40.90;;
59273;SDS011;45044;41.572;24.730;2022-12-07T05:00:32;65.57;;;41.33;;
59273;SDS011;45044;41.572;24.730;2022-12-07T05:02:59;62.67;;;40.57;;
59273;SDS011;45044;41.572;24.730;2022-12-07T05:05:26;57.27;;;37.93;;
59273;SDS011;45044;41.572;24.730;2022-12-07T05:07:53;59.90;;;39.07;;
59273;SDS011;45044;41.572;24.730;2022-12-07T05:10:20;53.97;;;35.30;;
59273;SDS011;45044;41.572;24.730;2022-12-07T05:12:47;64.57;;;41.73;;
59273;SDS011;45044;41.572;24.730;2022-12-07T05:15:14;58.10;;;40.47;;
59273;SDS011;45044;41.572;24.730;2022-12-07T05:17:44;64.73;;;44.53;;
59273;SDS011;45044;41.572;24.730;2022-12-07T05:20:11;52.33;;;34.87;;
59273;SDS011;45044;41.572;24.730;2022-12-07T05:22:38;49.37;;;33.27;;
59273;SDS011;45044;41.572;24.730;2022-12-07T05:25:04;52.37;;;33.50;;
59273;SDS011;45044;41.572;24.730;2022-12-07T05:27:31;53.87;;;35.40;;
59273;SDS011;45044;41.572;24.730;2022-12-07T05:29:58;54.67;;;35.90;;
59273;SDS011;45044;41.572;24.730;2022-12-07T05:32:25;64.67;;;39.70;;
59273;SDS011;45044;41.572;24.730;2022-12-07T05:34:51;83.83;;;53.43;;
59273;SDS011;45044;41.572;24.730;2022-12-07T05:37:20;70.33;;;47.97;;
59273;SDS011;45044;41.572;24.730;2022-12-07T05:39:47;66.77;;;43.13;;
59273;SDS011;45044;41.572;24.730;2022-12-07T05:42:14;53.47;;;30.97;;
59273;SDS011;45044;41.572;24.730;2022-12-07T05:44:43;55.67;;;35.30;;
59273;SDS011;45044;41.572;24.730;2022-12-07T05:47:12;71.67;;;43.83;;
59273;SDS011;45044;41.572;24.730;2022-12-07T05:49:40;75.33;;;48.03;;
59273;SDS011;45044;41.572;24.730;2022-12-07T05:52:07;62.70;;;41.87;;
59273;SDS011;45044;41.572;24.730;2022-12-07T05:54:33;59.73;;;39.00;;
59273;SDS011;45044;41.572;24.730;2022-12-07T05:57:00;55.53;;;36.63;;
59273;SDS011;45044;41.572;24.730;2022-12-07T05:59:27;57.63;;;38.90;;
59273;SDS011;45044;41.572;24.730;2022-12-07T06:01:56;59.50;;;38.63;;
59273;SDS011;45044;41.572;24.730;2022-12-07T06:04:26;65.53;;;40.50;;
59273;SDS011;45044;41.572;24.730;2022-12-07T06:06:55;60.97;;;42.60;;
59273;SDS011;45044;41.572;24.730;2022-12-07T06:09:22;63.53;;;41.60;;
59273;SDS011;45044;41.572;24.730;2022-12-07T06:11:50;56.17;;;37.33;;
59273;SDS011;45044;41.572;24.730;2022-12-07T06:14:36;64.20;;;45.37;;
59273;SDS011;45044;41.572;24.730;2022-12-07T06:17:03;63.70;;;42.03;;
59273;SDS011;45044;41.572;24.730;2022-12-07T06:19:30;69.43;;;48.23;;
59273;SDS011;45044;41.572;24.730;2022-12-07T06:21:57;70.60;;;49.77;;
59273;SDS011;45044;41.572;24.730;2022-12-07T06:24:24;90.37;;;58.30;;
59273;SDS011;45044;41.572;24.730;2022-12-07T06:26:51;103.77;;;66.07;;
59273;SDS011;45044;41.572;24.730;2022-12-07T06:29:18;122.33;;;79.40;;
59273;SDS011;45044;41.572;24.730;2022-12-07T06:31:45;114.77;;;73.10;;
59273;SDS011;45044;41.572;24.730;2022-12-07T06:34:13;106.23;;;65.30;;
59273;SDS011;45044;41.572;24.730;2022-12-07T06:36:42;93.17;;;62.83;;
59273;SDS011;45044;41.572;24.730;2022-12-07T06:39:09;89.67;;;58.47;;
59273;SDS011;45044;41.572;24.730;2022-12-07T06:41:36;77.70;;;54.93;;
59273;SDS011;45044;41.572;24.730;2022-12-07T06:44:04;77.33;;;53.77;;
59273;SDS011;45044;41.572;24.730;2022-12-07T06:46:32;81.00;;;53.43;;
59273;SDS011;45044;41.572;24.730;2022-12-07T06:48:59;88.43;;;56.33;;
59273;SDS011;45044;41.572;24.730;2022-12-07T06:51:26;82.97;;;54.40;;
59273;SDS011;45044;41.572;24.730;2022-12-07T06:53:52;92.67;;;57.73;;
59273;SDS011;45044;41.572;24.730;2022-12-07T06:56:19;87.93;;;60.63;;
59273;SDS011;45044;41.572;24.730;2022-12-07T06:58:46;88.65;;;62.13;;
59273;SDS011;45044;41.572;24.730;2022-12-07T07:01:13;43.65;;;32.08;;
59273;SDS011;45044;41.572;24.730;2022-12-07T07:03:41;55.60;;;40.47;;
59273;SDS011;45044;41.572;24.730;2022-12-07T07:06:09;61.95;;;44.30;;
59273;SDS011;45044;41.572;24.730;2022-12-07T07:08:36;70.78;;;48.97;;
59273;SDS011;45044;41.572;24.730;2022-12-07T07:11:04;65.43;;;47.70;;
59273;SDS011;45044;41.572;24.730;2022-12-07T07:13:32;68.35;;;49.33;;
59273;SDS011;45044;41.572;24.730;2022-12-07T07:15:59;67.18;;;53.13;;
59273;SDS011;45044;41.572;24.730;2022-12-07T07:18:26;78.20;;;57.97;;
59273;SDS011;45044;41.572;24.730;2022-12-07T07:20:53;65.00;;;47.40;;
59273;SDS011;45044;41.572;24.730;2022-12-07T07:23:21;72.32;;;52.08;;
59273;SDS011;45044;41.572;24.730;2022-12-07T07:25:48;45.10;;;35.88;;
59273;SDS011;45044;41.572;24.730;2022-12-07T07:28:15;57.83;;;40.17;;
59273;SDS011;45044;41.572;24.730;2022-12-07T07:30:42;57.10;;;44.00;;
59273;SDS011;45044;41.572;24.730;2022-12-07T07:33:09;56.15;;;41.65;;
59273;SDS011;45044;41.572;24.730;2022-12-07T07:35:37;58.92;;;45.20;;
59273;SDS011;45044;41.572;24.730;2022-12-07T07:38:03;67.75;;;49.75;;
59273;SDS011;45044;41.572;24.730;2022-12-07T07:40:30;74.50;;;50.88;;
59273;SDS011;45044;41.572;24.730;2022-12-07T07:42:57;78.65;;;53.67;;
59273;SDS011;45044;41.572;24.730;2022-12-07T07:45:25;79.68;;;55.75;;
59273;SDS011;45044;41.572;24.730;2022-12-07T07:47:53;88.38;;;62.85;;
59273;SDS011;45044;41.572;24.730;2022-12-07T07:50:20;85.00;;;62.58;;
59273;SDS011;45044;41.572;24.730;2022-12-07T07:52:48;78.03;;;55.38;;
59273;SDS011;45044;41.572;24.730;2022-12-07T07:55:15;82.60;;;53.25;;
59273;SDS011;45044;41.572;24.730;2022-12-07T07:57:42;75.10;;;53.83;;
59273;SDS011;45044;41.572;24.730;2022-12-07T08:00:15;82.53;;;56.75;;
59273;SDS011;45044;41.572;24.730;2022-12-07T08:02:42;78.27;;;55.73;;
59273;SDS011;45044;41.572;24.730;2022-12-07T08:05:10;85.43;;;55.05;;
59273;SDS011;45044;41.572;24.730;2022-12-07T08:07:38;81.43;;;56.03;;
59273;SDS011;45044;41.572;24.730;2022-12-07T08:10:06;81.90;;;61.13;;
59273;SDS011;45044;41.572;24.730;2022-12-07T08:12:37;84.10;;;59.58;;
59273;SDS011;45044;41.572;24.730;2022-12-07T08:15:26;92.30;;;64.03;;
59273;SDS011;45044;41.572;24.730;2022-12-07T08:17:54;95.07;;;64.63;;
59273;SDS011;45044;41.572;24.730;2022-12-07T08:20:21;78.77;;;55.77;;
59273;SDS011;45044;41.572;24.730;2022-12-07T08:22:48;88.30;;;62.45;;
59273;SDS011;45044;41.572;24.730;2022-12-07T08:25:15;81.50;;;57.88;;
59273;SDS011;45044;41.572;24.730;2022-12-07T08:27:42;83.50;;;61.45;;
59273;SDS011;45044;41.572;24.730;2022-12-07T08:30:09;88.75;;;63.30;;
59273;SDS011;45044;41.572;24.730;2022-12-07T08:32:36;95.05;;;68.43;;
59273;SDS011;45044;41.572;24.730;2022-12-07T08:35:03;95.85;;;72.47;;
59273;SDS011;45044;41.572;24.730;2022-12-07T08:37:30;105.97;;;80.68;;
59273;SDS011;45044;41.572;24.730;2022-12-07T08:39:57;65.13;;;48.45;;
59273;SDS011;45044;41.572;24.730;2022-12-07T08:42:25;71.43;;;54.45;;
59273;SDS011;45044;41.572;24.730;2022-12-07T08:44:56;78.72;;;60.67;;
59273;SDS011;45044;41.572;24.730;2022-12-07T08:47:23;76.18;;;57.90;;
59273;SDS011;45044;41.572;24.730;2022-12-07T08:49:51;82.70;;;59.88;;
59273;SDS011;45044;41.572;24.730;2022-12-07T08:52:19;75.75;;;56.47;;
59273;SDS011;45044;41.572;24.730;2022-12-07T08:54:46;90.22;;;65.85;;
59273;SDS011;45044;41.572;24.730;2022-12-07T08:57:13;84.93;;;61.88;;
59273;SDS011;45044;41.572;24.730;2022-12-07T08:59:40;84.05;;;57.95;;
59273;SDS011;45044;41.572;24.730;2022-12-07T09:02:07;68.60;;;51.45;;
59273;SDS011;45044;41.572;24.730;2022-12-07T09:04:33;86.25;;;60.33;;
59273;SDS011;45044;41.572;24.730;2022-12-07T09:07:00;96.45;;;70.18;;
59273;SDS011;45044;41.572;24.730;2022-12-07T09:09:27;105.38;;;76.97;;
59273;SDS011;45044;41.572;24.730;2022-12-07T09:11:54;102.80;;;74.40;;
59273;SDS011;45044;41.572;24.730;2022-12-07T09:14:21;91.75;;;68.30;;
59273;SDS011;45044;41.572;24.730;2022-12-07T09:16:48;99.40;;;71.75;;
59273;SDS011;45044;41.572;24.730;2022-12-07T09:19:14;42.47;;;29.83;;
59273;SDS011;45044;41.572;24.730;2022-12-07T09:21:41;79.78;;;54.70;;
59273;SDS011;45044;41.572;24.730;2022-12-07T09:24:08;68.38;;;52.03;;
59273;SDS011;45044;41.572;24.730;2022-12-07T09:26:35;78.55;;;54.90;;
59273;SDS011;45044;41.572;24.730;2022-12-07T09:29:02;59.15;;;43.72;;
59273;SDS011;45044;41.572;24.730;2022-12-07T09:31:29;39.03;;;28.95;;
59273;SDS011;45044;41.572;24.730;2022-12-07T09:33:57;50.30;;;36.85;;
59273;SDS011;45044;41.572;24.730;2022-12-07T09:36:25;64.43;;;47.50;;
59273;SDS011;45044;41.572;24.730;2022-12-07T09:38:54;39.25;;;28.27;;
59273;SDS011;45044;41.572;24.730;2022-12-07T09:41:21;20.52;;;15.07;;
59273;SDS011;45044;41.572;24.730;2022-12-07T09:43:50;13.00;;;9.82;;
59273;SDS011;45044;41.572;24.730;2022-12-07T09:46:17;25.83;;;19.13;;
59273;SDS011;45044;41.572;24.730;2022-12-07T09:48:46;9.30;;;5.03;;
59273;SDS011;45044;41.572;24.730;2022-12-07T09:51:17;7.72;;;4.25;;
59273;SDS011;45044;41.572;24.730;2022-12-07T09:53:50;8.23;;;3.72;;
59273;SDS011;45044;41.572;24.730;2022-12-07T09:56:18;8.57;;;4.05;;
59273;SDS011;45044;41.572;24.730;2022-12-07T09:58:45;9.05;;;4.47;;
59273;SDS011;45044;41.572;24.730;2022-12-07T10:01:14;9.90;;;5.15;;
59273;SDS011;45044;41.572;24.730;2022-12-07T10:03:50;8.65;;;4.57;;
59273;SDS011;45044;41.572;24.730;2022-12-07T10:06:18;6.65;;;3.40;;
59273;SDS011;45044;41.572;24.730;2022-12-07T10:08:45;7.93;;;3.55;;
59273;SDS011;45044;41.572;24.730;2022-12-07T10:11:12;12.10;;;5.80;;
59273;SDS011;45044;41.572;24.730;2022-12-07T10:13:45;7.35;;;3.40;;
59273;SDS011;45044;41.572;24.730;2022-12-07T10:18:51;7.25;;;4.10;;
59273;SDS011;45044;41.572;24.730;2022-12-07T10:21:22;15.45;;;12.73;;
59273;SDS011;45044;41.572;24.730;2022-12-07T10:31:45;8.30;;;4.18;;
59273;SDS011;45044;41.572;24.730;2022-12-07T10:34:33;7.78;;;3.45;;
59273;SDS011;45044;41.572;24.730;2022-12-07T10:42:28;6.05;;;2.65;;
59273;SDS011;45044;41.572;24.730;2022-12-07T10:47:34;5.88;;;2.83;;
59273;SDS011;45044;41.572;24.730;2022-12-07T10:58:42;5.68;;;3.20;;
59273;SDS011;45044;41.572;24.730;2022-12-07T11:01:32;5.57;;;2.80;;
59273;SDS011;45044;41.572;24.730;2022-12-07T11:07:25;6.28;;;3.45;;
59273;SDS011;45044;41.572;24.730;2022-12-07T11:24:10;5.97;;;3.00;;
59273;SDS011;45044;41.572;24.730;2022-12-07T11:38:20;7.88;;;4.13;;
59273;SDS011;45044;41.572;24.730;2022-12-07T11:40:56;6.05;;;3.42;;
59273;SDS011;45044;41.572;24.730;2022-12-07T11:46:29;8.57;;;4.68;;
59273;SDS011;45044;41.572;24.730;2022-12-07T11:51:58;7.75;;;4.55;;
59273;SDS011;45044;41.572;24.730;2022-12-07T11:54:30;7.53;;;3.20;;
59273;SDS011;45044;41.572;24.730;2022-12-07T11:57:02;9.38;;;5.10;;
59273;SDS011;45044;41.572;24.730;2022-12-07T11:59:42;10.32;;;5.63;;
59273;SDS011;45044;41.572;24.730;2022-12-07T12:02:16;6.55;;;4.15;;
59273;SDS011;45044;41.572;24.730;2022-12-07T12:04:55;8.30;;;3.65;;
59273;SDS011;45044;41.572;24.730;2022-12-07T12:07:28;12.02;;;6.50;;
59273;SDS011;45044;41.572;24.730;2022-12-07T12:19:11;8.18;;;4.25;;
59273;SDS011;45044;41.572;24.730;2022-12-07T12:21:29;8.30;;;3.28;;
59273;SDS011;45044;41.572;24.730;2022-12-07T12:26:26;5.70;;;2.88;;
59273;SDS011;45044;41.572;24.730;2022-12-07T12:28:56;7.85;;;3.80;;
59273;SDS011;45044;41.572;24.730;2022-12-07T12:34:29;11.23;;;5.22;;
59273;SDS011;45044;41.572;24.730;2022-12-07T12:36:56;6.18;;;2.80;;
59273;SDS011;45044;41.572;24.730;2022-12-07T12:39:23;16.48;;;7.45;;
59273;SDS011;45044;41.572;24.730;2022-12-07T12:41:52;6.32;;;3.08;;
59273;SDS011;45044;41.572;24.730;2022-12-07T12:46:53;15.45;;;7.75;;
59273;SDS011;45044;41.572;24.730;2022-12-07T12:51:49;10.77;;;4.60;;
59273;SDS011;45044;41.572;24.730;2022-12-07T12:54:25;8.35;;;4.00;;
59273;SDS011;45044;41.572;24.730;2022-12-07T12:57:10;9.02;;;4.20;;
59273;SDS011;45044;41.572;24.730;2022-12-07T13:04:59;13.50;;;8.35;;
59273;SDS011;45044;41.572;24.730;2022-12-07T13:07:47;13.60;;;6.70;;
59273;SDS011;45044;41.572;24.730;2022-12-07T13:15:46;16.73;;;8.15;;
59273;SDS011;45044;41.572;24.730;2022-12-07T13:28:50;15.00;;;7.10;;
59273;SDS011;45044;41.572;24.730;2022-12-07T13:31:37;8.00;;;4.22;;
59273;SDS011;45044;41.572;24.730;2022-12-07T13:42:27;12.20;;;7.68;;
59273;SDS011;45044;41.572;24.730;2022-12-07T13:45:00;6.93;;;3.53;;
59273;SDS011;45044;41.572;24.730;2022-12-07T13:47:53;13.18;;;8.55;;
59273;SDS011;45044;41.572;24.730;2022-12-07T13:50:24;8.90;;;4.68;;
59273;SDS011;45044;41.572;24.730;2022-12-07T13:52:57;12.73;;;6.38;;
59273;SDS011;45044;41.572;24.730;2022-12-07T13:55:25;9.77;;;6.15;;
59273;SDS011;45044;41.572;24.730;2022-12-07T13:57:53;8.85;;;4.93;;
59273;SDS011;45044;41.572;24.730;2022-12-07T14:00:22;51.70;;;32.85;;
59273;SDS011;45044;41.572;24.730;2022-12-07T14:05:29;22.05;;;16.17;;
59273;SDS011;45044;41.572;24.730;2022-12-07T14:08:01;8.13;;;4.43;;
59273;SDS011;45044;41.572;24.730;2022-12-07T14:10:39;6.00;;;3.25;;
59273;SDS011;45044;41.572;24.730;2022-12-07T14:16:54;25.80;;;14.18;;
59273;SDS011;45044;41.572;24.730;2022-12-07T14:19:06;7.95;;;4.00;;
59273;SDS011;45044;41.572;24.730;2022-12-07T14:22:53;14.02;;;8.32;;
59273;SDS011;45044;41.572;24.730;2022-12-07T14:27:47;16.42;;;10.07;;
59273;SDS011;45044;41.572;24.730;2022-12-07T14:30:16;12.23;;;4.40;;
59273;SDS011;45044;41.572;24.730;2022-12-07T14:32:44;13.75;;;7.63;;
59273;SDS011;45044;41.572;24.730;2022-12-07T14:35:16;8.55;;;4.20;;
59273;SDS011;45044;41.572;24.730;2022-12-07T14:37:45;12.27;;;6.85;;
59273;SDS011;45044;41.572;24.730;2022-12-07T14:40:15;8.05;;;4.90;;
59273;SDS011;45044;41.572;24.730;2022-12-07T14:42:47;13.10;;;6.40;;
59273;SDS011;45044;41.572;24.730;2022-12-07T14:45:18;8.23;;;4.18;;
59273;SDS011;45044;41.572;24.730;2022-12-07T14:47:47;22.83;;;13.82;;
59273;SDS011;45044;41.572;24.730;2022-12-07T14:50:35;9.90;;;4.20;;
59273;SDS011;45044;41.572;24.730;2022-12-07T14:53:12;11.80;;;6.35;;
59273;SDS011;45044;41.572;24.730;2022-12-07T14:55:47;9.55;;;4.57;;
59273;SDS011;45044;41.572;24.730;2022-12-07T14:58:15;9.02;;;4.72;;
59273;SDS011;45044;41.572;24.730;2022-12-07T15:00:43;8.05;;;3.97;;
59273;SDS011;45044;41.572;24.730;2022-12-07T15:03:10;9.93;;;4.88;;
59273;SDS011;45044;41.572;24.730;2022-12-07T15:05:39;12.45;;;6.80;;
59273;SDS011;45044;41.572;24.730;2022-12-07T15:08:11;8.45;;;4.78;;
59273;SDS011;45044;41.572;24.730;2022-12-07T15:10:39;10.57;;;6.13;;
59273;SDS011;45044;41.572;24.730;2022-12-07T15:13:06;10.43;;;5.97;;
59273;SDS011;45044;41.572;24.730;2022-12-07T15:15:53;16.65;;;11.10;;
59273;SDS011;45044;41.572;24.730;2022-12-07T15:18:21;14.55;;;8.75;;
59273;SDS011;45044;41.572;24.730;2022-12-07T15:20:49;15.80;;;12.30;;
59273;SDS011;45044;41.572;24.730;2022-12-07T15:23:17;18.10;;;10.15;;
59273;SDS011;45044;41.572;24.730;2022-12-07T15:25:45;13.75;;;9.00;;
59273;SDS011;45044;41.572;24.730;2022-12-07T15:28:13;10.80;;;5.95;;
59273;SDS011;45044;41.572;24.730;2022-12-07T15:30:41;7.75;;;3.72;;
59273;SDS011;45044;41.572;24.730;2022-12-07T15:33:10;8.48;;;5.07;;
59273;SDS011;45044;41.572;24.730;2022-12-07T15:35:38;12.88;;;10.57;;
59273;SDS011;45044;41.572;24.730;2022-12-07T15:38:10;11.85;;;6.78;;
59273;SDS011;45044;41.572;24.730;2022-12-07T15:40:37;13.18;;;8.32;;
59273;SDS011;45044;41.572;24.730;2022-12-07T15:43:05;10.63;;;7.10;;
59273;SDS011;45044;41.572;24.730;2022-12-07T15:45:51;17.20;;;8.77;;
59273;SDS011;45044;41.572;24.730;2022-12-07T15:48:18;20.00;;;11.90;;
59273;SDS011;45044;41.572;24.730;2022-12-07T15:51:01;14.43;;;9.27;;
59273;SDS011;45044;41.572;24.730;2022-12-07T15:53:32;7.80;;;4.80;;
59273;SDS011;45044;41.572;24.730;2022-12-07T15:55:59;10.70;;;6.38;;
59273;SDS011;45044;41.572;24.730;2022-12-07T15:58:27;11.82;;;6.93;;
59273;SDS011;45044;41.572;24.730;2022-12-07T16:00:53;21.83;;;13.45;;
59273;SDS011;45044;41.572;24.730;2022-12-07T16:03:20;22.15;;;15.13;;
59273;SDS011;45044;41.572;24.730;2022-12-07T16:05:51;14.60;;;8.00;;
59273;SDS011;45044;41.572;24.730;2022-12-07T16:08:19;22.85;;;14.77;;
59273;SDS011;45044;41.572;24.730;2022-12-07T16:10:46;18.38;;;12.63;;
59273;SDS011;45044;41.572;24.730;2022-12-07T16:13:13;34.92;;;30.85;;
59273;SDS011;45044;41.572;24.730;2022-12-07T16:15:42;21.85;;;12.77;;
59273;SDS011;45044;41.572;24.730;2022-12-07T16:18:09;9.23;;;4.88;;
59273;SDS011;45044;41.572;24.730;2022-12-07T16:20:36;15.52;;;8.23;;
59273;SDS011;45044;41.572;24.730;2022-12-07T16:23:03;16.75;;;10.32;;
59273;SDS011;45044;41.572;24.730;2022-12-07T16:25:30;19.08;;;12.05;;
59273;SDS011;45044;41.572;24.730;2022-12-07T16:27:56;9.82;;;5.38;;
59273;SDS011;45044;41.572;24.730;2022-12-07T16:30:23;14.13;;;8.43;;
59273;SDS011;45044;41.572;24.730;2022-12-07T16:32:50;13.70;;;7.88;;
59273;SDS011;45044;41.572;24.730;2022-12-07T16:35:17;9.23;;;5.10;;
59273;SDS011;45044;41.572;24.730;2022-12-07T16:37:44;11.15;;;6.55;;
59273;SDS011;45044;41.572;24.730;2022-12-07T16:40:11;24.15;;;15.05;;
59273;SDS011;45044;41.572;24.730;2022-12-07T16:42:38;12.70;;;8.43;;
59273;SDS011;45044;41.572;24.730;2022-12-07T16:45:05;11.40;;;5.70;;
59273;SDS011;45044;41.572;24.730;2022-12-07T16:47:32;9.15;;;4.95;;
59273;SDS011;45044;41.572;24.730;2022-12-07T16:49:58;15.40;;;11.05;;
59273;SDS011;45044;41.572;24.730;2022-12-07T16:52:25;15.90;;;10.25;;
59273;SDS011;45044;41.572;24.730;2022-12-07T16:54:52;19.92;;;13.77;;
59273;SDS011;45044;41.572;24.730;2022-12-07T16:57:19;15.25;;;9.65;;
59273;SDS011;45044;41.572;24.730;2022-12-07T16:59:49;17.23;;;10.48;;
59273;SDS011;45044;41.572;24.730;2022-12-07T17:02:16;11.77;;;7.70;;
59273;SDS011;45044;41.572;24.730;2022-12-07T17:04:44;18.27;;;13.80;;
59273;SDS011;45044;41.572;24.730;2022-12-07T17:07:10;15.40;;;10.05;;